Time;durP1;ratioP1;P1;durP2;ratioP2;P2;SDS_P1;SDS_P2;PMS_P1;PMS_P2;Temp;Humidity;BMP_temperature;BMP_pressure;BME280_temperature;BME280_humidity;BME280_pressure;Samples;Min_cycle;Max_cycle;Signal;HPM_P1;HPM_P2
2022/04/11 00:03:12;;;;;;;4.90;4.50;;;;;;;6.33;55.84;99219.94;7030120;28;20214;-77
2022/04/11 00:06:34;;;;;;;5.20;4.60;;;;;;;6.27;55.95;99201.00;7028574;28;20210;-78
2022/04/11 00:09:55;;;;;;;5.07;4.53;;;;;;;6.17;56.10;99206.53;7030557;28;20714;-78
2022/04/11 00:13:17;;;;;;;7.33;4.40;;;;;;;6.12;56.50;99210.72;7029985;28;20225;-79
2022/04/11 00:16:40;;;;;;;6.43;4.73;;;;;;;5.94;57.31;99183.28;7029975;28;20236;-77
2022/04/11 00:20:01;;;;;;;10.03;5.13;;;;;;;5.84;57.07;99191.47;7029560;28;20270;-78
2022/04/11 00:23:23;;;;;;;6.23;4.80;;;;;;;6.17;56.67;99209.22;7030395;28;20827;-78
2022/04/11 00:26:45;;;;;;;5.20;4.23;;;;;;;6.31;56.39;99200.50;7029583;28;20283;-78
2022/04/11 00:30:07;;;;;;;5.27;4.70;;;;;;;6.38;56.05;99211.38;7029641;28;20263;-78
2022/04/11 00:33:30;;;;;;;9.00;6.20;;;;;;;6.25;56.25;99192.31;7030138;28;20305;-78
2022/04/11 00:36:52;;;;;;;10.73;7.70;;;;;;;6.07;56.30;99183.63;7028578;28;20543;-78
2022/04/11 00:40:14;;;;;;;7.47;5.50;;;;;;;6.20;56.31;99195.47;7030031;28;20236;-78
2022/04/11 00:43:36;;;;;;;7.10;5.67;;;;;;;5.92;57.32;99169.22;7029292;28;20261;-77
2022/04/11 00:46:58;;;;;;;7.20;5.17;;;;;;;6.10;56.42;99191.31;7029000;28;20680;-77
2022/04/11 00:50:21;;;;;;;5.73;4.93;;;;;;;5.77;57.07;99194.97;7028778;28;20227;-78
2022/04/11 00:53:44;;;;;;;5.00;4.50;;;;;;;5.79;57.07;99160.84;7029637;28;20300;-77
2022/04/11 00:57:07;;;;;;;6.10;4.90;;;;;;;5.90;57.37;99184.63;7028681;28;20206;-77
2022/04/11 01:00:28;;;;;;;6.97;6.23;;;;;;;5.88;57.11;99181.25;7029324;28;20616;-76
2022/04/11 01:03:51;;;;;;;5.97;5.17;;;;;;;5.83;57.28;99178.28;7029459;28;20205;-78
2022/04/11 01:07:14;;;;;;;5.30;4.80;;;;;;;5.73;57.40;99148.94;7028024;28;20263;-77
2022/04/11 01:10:35;;;;;;;6.50;5.07;;;;;;;5.85;57.26;99169.06;7028779;28;20237;-77
2022/04/11 01:13:57;;;;;;;5.83;5.20;;;;;;;5.93;56.96;99177.09;7029271;28;20262;-77
2022/04/11 01:17:18;;;;;;;6.20;5.27;;;;;;;5.91;57.13;99176.44;7028331;28;20337;-77
2022/04/11 01:20:40;;;;;;;6.80;5.07;;;;;;;5.84;57.04;99156.69;7028672;28;20358;-78
2022/04/11 01:24:09;;;;;;;5.27;4.87;;;;;;;5.80;57.31;99170.56;7028383;28;20209;-77
2022/04/11 01:27:34;;;;;;;9.97;5.60;;;;;;;5.84;57.49;99159.34;7027663;28;20201;-77
2022/04/11 01:30:58;;;;;;;5.60;5.10;;;;;;;5.95;57.50;99158.22;7028296;28;20228;-78
2022/04/11 01:34:36;;;;;;;7.10;5.43;;;;;;;5.55;57.15;99105.47;7028641;28;20682;-78
2022/04/11 01:37:58;;;;;;;5.87;5.27;;;;;;;5.46;57.55;99094.94;7028386;28;20194;-77
2022/04/11 01:41:23;;;;;;;8.50;5.33;;;;;;;5.51;57.31;99109.50;7028269;28;20225;-77
2022/04/11 01:44:45;;;;;;;7.23;4.57;;;;;;;6.15;56.97;99173.75;7028655;28;20213;-77
2022/04/11 01:48:09;;;;;;;6.40;5.30;;;;;;;5.65;56.70;99108.00;7032395;28;20565;-77
2022/04/11 01:59:50;;;;;;;5.37;4.83;;;;;;;5.89;57.03;99156.22;7038609;28;20211;-77
2022/04/11 02:03:14;;;;;;;5.70;5.13;;;;;;;5.69;57.36;99120.03;7033528;28;20521;-77
2022/04/11 02:57:58;;;;;;;8.37;5.40;;;;;;;6.37;56.09;99015.06;7030387;28;20641;-79
2022/04/11 03:01:20;;;;;;;6.07;5.57;;;;;;;6.50;56.52;99071.59;7032042;28;20246;-78
2022/04/11 03:04:42;;;;;;;5.77;5.17;;;;;;;6.31;57.38;99069.31;7031798;28;20206;-78
2022/04/11 04:08:36;;;;;;;11.07;5.90;;;;;;;6.53;56.62;98985.53;6919025;28;20225;-77
2022/04/11 04:12:01;;;;;;;9.67;6.27;;;;;;;6.61;55.78;98973.94;6915422;28;20233;-76
2022/04/11 04:25:00;;;;;;;8.90;6.13;;;;;;;6.99;55.69;99030.16;6923869;28;20266;-77
2022/04/11 04:28:23;;;;;;;10.67;6.70;;;;;;;7.19;55.47;99017.13;6943171;28;20254;-79
2022/04/11 04:31:47;;;;;;;9.67;6.57;;;;;;;7.27;54.64;99011.69;6927358;28;20232;-77
2022/04/11 04:35:15;;;;;;;6.03;5.43;;;;;;;7.17;54.24;99009.25;6926243;28;20214;-79
2022/04/11 04:38:37;;;;;;;7.00;5.77;;;;;;;6.99;55.87;99015.91;6931306;28;20205;-79
2022/04/11 04:41:58;;;;;;;7.93;6.00;;;;;;;6.95;55.42;99004.69;6953203;28;20205;-78
2022/04/11 04:45:23;;;;;;;7.73;5.93;;;;;;;6.85;55.21;98965.75;6940005;28;20250;-79
2022/04/11 04:48:44;;;;;;;9.60;6.20;;;;;;;6.36;55.41;98926.88;7000428;28;20234;-79
2022/04/11 04:52:07;;;;;;;7.87;7.00;;;;;;;6.68;54.82;98953.47;7030799;28;20226;-79
2022/04/11 04:55:43;;;;;;;9.30;5.87;;;;;;;6.66;55.39;98993.81;7006441;28;20295;-81
2022/04/11 04:59:05;;;;;;;7.33;5.50;;;;;;;6.60;55.32;99010.59;6923417;28;20233;-81
2022/04/11 05:02:37;;;;;;;6.23;5.73;;;;;;;6.52;55.63;99010.66;6926089;28;20234;-81
2022/04/11 05:05:59;;;;;;;7.13;6.10;;;;;;;6.51;56.47;99005.47;6934510;28;20225;-84
2022/04/11 05:09:21;;;;;;;8.40;6.87;;;;;;;6.63;55.98;99009.41;6953647;28;20257;-82
2022/04/11 05:12:44;;;;;;;8.57;7.00;;;;;;;6.40;56.93;99003.16;6955702;28;20231;-82
2022/04/11 05:16:12;;;;;;;10.33;6.93;;;;;;;6.39;57.45;99021.09;6958549;28;20207;-82
2022/04/11 05:19:35;;;;;;;7.87;6.30;;;;;;;6.51;56.60;99000.09;6958812;28;20225;-81
2022/04/11 05:23:00;;;;;;;6.90;5.90;;;;;;;6.13;57.44;98985.69;6956096;28;20199;-81
2022/04/11 05:26:21;;;;;;;12.30;5.97;;;;;;;6.71;56.59;99012.06;6953219;28;20278;-80
2022/04/11 05:30:00;;;;;;;10.07;6.10;;;;;;;6.77;56.37;99025.59;6957389;28;20229;-84
2022/04/11 05:33:38;;;;;;;8.40;6.33;;;;;;;6.76;56.12;99023.06;6962439;28;20286;-86
2022/04/11 05:37:12;;;;;;;11.30;6.50;;;;;;;5.81;57.50;98948.34;7021710;28;20221;-83
2022/04/11 05:40:34;;;;;;;7.03;6.30;;;;;;;6.41;57.04;99027.09;7018415;28;20282;-87
2022/04/11 05:43:56;;;;;;;7.33;6.60;;;;;;;7.10;56.63;99032.44;7020392;28;20240;-83
2022/04/11 05:47:17;;;;;;;7.37;5.80;;;;;;;7.77;55.48;99018.13;7028682;28;20204;-83
2022/04/11 05:50:42;;;;;;;7.10;6.27;;;;;;;7.65;54.40;99024.94;7026617;28;20230;-82
2022/04/11 05:54:05;;;;;;;8.87;5.70;;;;;;;7.75;54.14;99030.91;7015744;28;20233;-83
2022/04/11 05:57:27;;;;;;;6.57;5.50;;;;;;;8.03;54.04;99020.38;7007844;28;20552;-82
2022/04/11 06:00:49;;;;;;;7.30;5.93;;;;;;;8.06;53.06;99014.63;7010003;28;20260;-83
2022/04/11 06:04:10;;;;;;;6.03;4.87;;;;;;;8.61;53.79;99010.47;7006899;28;20573;-82
2022/04/11 06:07:33;;;;;;;7.17;5.30;;;;;;;9.22;51.60;99007.28;7005384;28;20213;-80
2022/04/11 06:10:56;;;;;;;7.77;6.97;;;;;;;9.41;50.96;99006.63;7013913;28;20232;-81
2022/04/11 06:14:18;;;;;;;6.47;5.50;;;;;;;9.31;50.50;98995.34;7012746;28;20236;-82
2022/04/11 06:17:39;;;;;;;5.87;5.27;;;;;;;9.25;50.78;98993.44;7019727;28;20201;-80
2022/04/11 06:21:01;;;;;;;9.23;5.73;;;;;;;9.16;50.91;98936.22;7037630;28;20244;-80
2022/04/11 06:24:23;;;;;;;8.63;5.93;;;;;;;9.64;50.04;99007.25;7033255;28;20209;-80
2022/04/11 06:27:46;;;;;;;6.00;5.40;;;;;;;9.74;50.33;99011.28;7030936;28;20661;-79
2022/04/11 06:31:07;;;;;;;6.50;5.23;;;;;;;10.92;47.70;99000.16;7029388;28;20315;-79
2022/04/11 06:34:29;;;;;;;7.37;4.83;;;;;;;12.06;46.63;98995.38;7033873;28;20315;-79
2022/04/11 06:37:50;;;;;;;8.00;5.73;;;;;;;11.99;45.55;99012.63;7033818;28;20287;-76
2022/04/11 06:41:12;;;;;;;5.60;5.10;;;;;;;12.72;45.17;98996.00;7034014;28;20312;-77
2022/04/11 06:44:37;;;;;;;6.50;5.00;;;;;;;13.27;43.30;98992.66;7034411;28;20208;-77
2022/04/11 06:47:59;;;;;;;7.83;4.87;;;;;;;13.34;41.97;99002.38;7032246;28;20205;-77
2022/04/11 06:51:20;;;;;;;6.90;5.00;;;;;;;13.15;42.97;98999.81;7031697;28;20381;-76
2022/04/11 06:54:42;;;;;;;5.97;4.40;;;;;;;14.31;40.83;98968.25;7006067;28;20229;-78
2022/04/11 06:58:03;;;;;;;5.23;4.43;;;;;;;14.66;37.52;98971.19;7005308;28;20578;-79
2022/04/11 07:01:26;;;;;;;5.27;4.50;;;;;;;13.68;38.37;98977.56;7023668;28;20303;-77
2022/04/11 07:04:48;;;;;;;5.07;4.20;;;;;;;12.41;41.98;98976.97;7020514;28;20198;-77
2022/04/11 07:08:10;;;;;;;5.87;4.87;;;;;;;12.06;42.10;98979.16;7006662;28;20213;-78
2022/04/11 07:11:31;;;;;;;6.37;4.73;;;;;;;12.60;41.44;98973.38;7027328;28;20229;-78
2022/04/11 07:14:54;;;;;;;8.07;4.47;;;;;;;12.04;42.15;98996.63;7030620;28;20582;-78
2022/04/11 07:18:19;;;;;;;5.00;4.20;;;;;;;12.15;41.89;98988.69;7011714;28;20740;-78
2022/04/11 07:21:40;;;;;;;5.53;4.47;;;;;;;12.87;41.50;98981.16;7025261;28;20190;-78
2022/04/11 07:25:02;;;;;;;7.70;4.67;;;;;;;12.70;40.95;98988.09;7029889;28;20225;-77
2022/04/11 07:28:24;;;;;;;6.17;4.80;;;;;;;12.62;40.91;98979.41;7006586;28;20206;-78
2022/04/11 07:31:45;;;;;;;4.97;4.43;;;;;;;12.37;41.85;98978.44;7033031;28;20216;-78
2022/04/11 07:35:09;;;;;;;6.63;4.87;;;;;;;12.30;41.93;98993.84;7033177;28;20319;-78
2022/04/11 07:38:31;;;;;;;5.83;4.40;;;;;;;12.59;40.48;98994.19;7032166;28;20213;-78
2022/04/11 07:41:53;;;;;;;6.93;4.20;;;;;;;12.43;40.87;98972.19;7025563;28;20706;-78
2022/04/11 07:45:15;;;;;;;6.10;4.27;;;;;;;12.74;40.53;98977.72;7031016;28;20200;-78
2022/04/11 07:48:37;;;;;;;4.73;4.27;;;;;;;12.83;39.96;98973.69;7009133;28;20307;-78
2022/04/11 07:51:59;;;;;;;5.43;4.03;;;;;;;13.25;39.21;98986.63;7004843;28;20301;-78
2022/04/11 07:55:21;;;;;;;5.23;4.57;;;;;;;12.39;39.98;98962.84;7004628;28;20293;-76
2022/04/11 07:58:43;;;;;;;6.37;4.13;;;;;;;13.73;38.14;98979.59;7004035;28;20252;-78
2022/04/11 08:02:05;;;;;;;4.57;3.83;;;;;;;13.08;38.75;98974.63;7004822;28;20199;-78
2022/04/11 08:05:26;;;;;;;4.13;3.40;;;;;;;15.14;35.94;98975.59;7017981;28;20205;-78
2022/04/11 08:08:49;;;;;;;5.67;3.90;;;;;;;14.55;35.75;98980.06;7008946;28;20615;-78
2022/04/11 08:12:11;;;;;;;4.23;3.83;;;;;;;14.74;34.69;98962.75;7004694;28;20647;-77
2022/04/11 08:15:33;;;;;;;5.47;3.20;;;;;;;15.02;34.61;98957.56;7003927;28;20251;-78
2022/04/11 08:18:55;;;;;;;3.87;3.20;;;;;;;15.62;34.28;98946.44;7013402;28;20226;-78
2022/04/11 08:22:16;;;;;;;4.23;3.20;;;;;;;15.30;32.70;98963.22;7032653;28;20212;-78
2022/04/11 08:25:39;;;;;;;3.83;3.40;;;;;;;14.89;33.83;98961.31;7032199;28;20240;-80
2022/04/11 08:29:01;;;;;;;4.13;3.50;;;;;;;15.24;34.03;98964.16;7031872;28;20228;-79
2022/04/11 08:32:23;;;;;;;5.23;3.20;;;;;;;16.01;33.57;98970.28;7032435;28;20212;-79
2022/04/11 08:35:45;;;;;;;4.23;2.93;;;;;;;17.30;31.92;98948.84;7032086;28;20233;-79
2022/04/11 08:39:07;;;;;;;5.77;2.87;;;;;;;17.30;30.11;98949.69;7026501;28;20291;-78
2022/04/11 08:42:30;;;;;;;3.13;2.83;;;;;;;17.87;29.76;98915.78;7032284;28;20269;-79
2022/04/11 08:45:53;;;;;;;6.27;2.90;;;;;;;17.52;29.92;98958.00;7031922;28;20231;-79
2022/04/11 08:49:15;;;;;;;6.70;3.07;;;;;;;17.99;28.94;98953.91;7026678;28;20221;-78
2022/04/11 08:52:37;;;;;;;4.50;2.63;;;;;;;18.56;28.83;98950.69;7030005;28;20220;-79
2022/04/11 08:55:59;;;;;;;3.33;2.67;;;;;;;17.92;29.53;98921.31;7025371;28;20201;-78
2022/04/11 08:59:22;;;;;;;4.43;3.03;;;;;;;17.90;28.65;98944.47;7031688;28;20221;-79
2022/04/11 09:02:44;;;;;;;2.83;2.53;;;;;;;18.23;29.21;98949.91;7031805;28;20827;-79
2022/04/11 09:06:08;;;;;;;4.20;2.93;;;;;;;17.26;30.47;98945.78;7030178;28;20216;-79
2022/04/11 09:09:39;;;;;;;4.17;2.70;;;;;;;18.60;29.29;98931.88;7031136;28;20224;-79
2022/04/11 09:13:03;;;;;;;3.27;2.40;;;;;;;18.81;26.67;98937.34;7031502;28;20219;-78
2022/04/11 09:16:26;;;;;;;3.50;2.30;;;;;;;18.21;27.56;98939.22;7028179;28;20212;-79
2022/04/11 09:19:48;;;;;;;2.53;2.30;;;;;;;18.08;27.72;98941.47;7030846;28;20220;-79
2022/04/11 09:23:18;;;;;;;3.43;2.33;;;;;;;18.01;27.43;98906.19;7030991;28;20228;-79
2022/04/11 09:26:40;;;;;;;2.70;2.50;;;;;;;18.72;27.33;98922.50;7029743;28;20181;-78
2022/04/11 09:30:02;;;;;;;3.13;2.43;;;;;;;18.89;27.12;98922.41;7015433;28;20225;-79
2022/04/11 09:33:26;;;;;;;2.43;2.23;;;;;;;18.22;27.76;98929.97;7005970;28;20222;-79
2022/04/11 09:36:49;;;;;;;2.60;2.40;;;;;;;18.50;27.25;98921.66;7001510;28;20202;-79
2022/04/11 09:40:11;;;;;;;2.50;2.30;;;;;;;17.78;25.60;98930.09;7003323;28;20298;-78
2022/04/11 09:43:33;;;;;;;3.43;2.40;;;;;;;18.34;28.31;98914.34;7007400;28;20676;-78
2022/04/11 09:46:56;;;;;;;3.70;2.60;;;;;;;18.77;25.87;98928.03;7024402;28;20285;-78
2022/04/11 09:50:19;;;;;;;3.70;2.50;;;;;;;19.25;26.05;98919.88;7009062;28;20259;-79
2022/04/11 09:53:41;;;;;;;2.93;2.40;;;;;;;18.60;25.84;98901.84;7030170;28;20232;-76
2022/04/11 09:57:04;;;;;;;2.70;2.20;;;;;;;18.45;26.82;98898.94;7020766;28;20593;-78
2022/04/11 10:00:41;;;;;;;4.67;4.03;;;;;;;19.19;26.33;98882.59;7015409;28;20248;-79
2022/04/11 10:04:03;;;;;;;3.23;2.27;;;;;;;18.85;27.43;98881.13;6917218;28;20215;-77
2022/04/11 10:07:26;;;;;;;2.70;2.37;;;;;;;18.82;27.00;98894.47;6916435;28;20215;-79
2022/04/11 10:10:48;;;;;;;2.80;2.50;;;;;;;19.12;26.60;98881.97;6922616;28;20239;-78
2022/04/11 10:14:10;;;;;;;3.80;2.20;;;;;;;18.74;25.95;98884.81;6948943;28;20242;-78
2022/04/11 10:17:32;;;;;;;3.23;2.33;;;;;;;18.97;26.10;98857.22;6948400;28;20233;-78
2022/04/11 10:20:58;;;;;;;3.23;2.40;;;;;;;19.23;25.03;98872.00;6949167;28;20596;-79
2022/04/11 10:24:33;;;;;;;2.53;2.33;;;;;;;19.42;25.30;98868.63;6948797;28;20204;-79
2022/04/11 10:28:14;;;;;;;2.50;2.17;;;;;;;18.92;24.77;98875.47;6943524;28;20215;-80
2022/04/11 10:31:37;;;;;;;5.27;2.50;;;;;;;19.03;25.65;98864.38;6941130;28;20226;-80
2022/04/11 10:35:01;;;;;;;2.63;2.23;;;;;;;19.59;24.75;98863.03;6949052;28;20305;-77
2022/04/11 10:38:22;;;;;;;2.37;2.13;;;;;;;20.33;25.27;98853.72;6947852;28;20250;-78
2022/04/11 10:42:09;;;;;;;2.77;2.43;;;;;;;18.73;24.55;98849.56;6990766;28;20211;-77
2022/04/11 10:45:31;;;;;;;2.40;2.20;;;;;;;19.06;24.51;98838.44;7006696;28;20651;-77
2022/04/11 10:49:05;;;;;;;2.33;2.13;;;;;;;18.53;24.66;98862.97;7021489;28;20598;-77
2022/04/11 10:52:31;;;;;;;3.37;2.50;;;;;;;17.89;25.98;98845.44;7034548;28;20197;-77
2022/04/11 10:56:09;;;;;;;2.40;2.20;;;;;;;18.52;24.40;98840.31;7012706;28;20706;-78
2022/04/11 11:00:05;;;;;;;3.13;2.50;;;;;;;19.25;24.29;98835.13;7023301;28;20233;-77
2022/04/11 11:03:27;;;;;;;2.47;2.27;;;;;;;19.90;24.00;98826.59;7029222;28;20196;-77
2022/04/11 11:07:25;;;;;;;2.37;2.03;;;;;;;20.02;23.96;98821.72;7014907;28;20216;-78
2022/04/11 11:10:48;;;;;;;2.30;2.10;;;;;;;20.59;23.49;98825.31;7006098;28;20239;-78
2022/04/11 11:14:39;;;;;;;2.77;2.33;;;;;;;21.17;22.55;98813.97;7005837;28;20238;-78
2022/04/11 11:18:02;;;;;;;2.80;2.40;;;;;;;20.47;22.17;98811.88;7020604;28;20190;-78
2022/04/11 11:22:03;;;;;;;2.57;2.33;;;;;;;20.72;24.55;98800.97;7014974;28;20226;-78
2022/04/11 11:25:25;;;;;;;2.47;2.27;;;;;;;20.44;24.68;98786.91;7027480;28;20576;-78
2022/04/11 11:28:46;;;;;;;2.30;2.00;;;;;;;20.82;22.82;98795.50;7033077;28;20546;-78
2022/04/11 11:32:12;;;;;;;2.40;2.20;;;;;;;21.77;22.15;98782.69;7033650;28;20606;-77
2022/04/11 11:35:33;;;;;;;3.57;2.20;;;;;;;21.76;20.98;98770.06;7033754;28;20721;-77
2022/04/11 11:38:56;;;;;;;2.30;2.10;;;;;;;20.86;22.70;98769.22;7032415;28;20256;-78
2022/04/11 11:42:18;;;;;;;2.30;2.10;;;;;;;21.22;22.41;98768.19;7033955;28;20230;-78
2022/04/11 11:45:41;;;;;;;2.27;2.07;;;;;;;20.92;23.38;98770.91;7032078;28;20201;-78
2022/04/11 11:49:02;;;;;;;2.33;2.13;;;;;;;20.23;22.22;98724.97;7033416;28;20266;-77
2022/04/11 11:52:24;;;;;;;3.03;2.10;;;;;;;20.34;22.13;98743.88;7017322;28;20280;-79
2022/04/11 11:55:55;;;;;;;2.83;2.53;;;;;;;19.00;25.29;98757.50;7021074;28;20241;-78
2022/04/11 11:59:16;;;;;;;4.00;2.33;;;;;;;19.76;23.14;98719.50;7030986;28;20252;-79
2022/04/11 12:06:23;;;;;;;4.87;2.40;;;;;;;21.18;22.00;98736.94;7020846;28;20196;-79
2022/04/11 12:09:45;;;;;;;3.70;2.40;;;;;;;21.14;22.04;98742.13;7033344;28;20712;-79
2022/04/11 12:13:08;;;;;;;2.00;1.90;;;;;;;21.37;20.95;98733.34;7035323;28;20193;-79
2022/04/11 12:16:30;;;;;;;2.23;2.13;;;;;;;20.53;22.51;98714.91;7027651;28;20301;-79
2022/04/11 12:19:52;;;;;;;2.67;2.23;;;;;;;20.67;22.71;98726.16;7046649;28;20230;-79
2022/04/11 12:23:14;;;;;;;3.07;2.60;;;;;;;21.22;21.08;98715.25;7020495;28;20681;-79
2022/04/11 12:26:37;;;;;;;2.97;2.10;;;;;;;21.59;21.98;98705.63;7043845;28;20585;-79
2022/04/11 12:30:12;;;;;;;4.43;2.13;;;;;;;22.53;21.33;98706.38;7031627;28;20232;-78
2022/04/11 12:33:35;;;;;;;3.60;2.80;;;;;;;19.83;22.58;98705.59;7037005;28;20205;-78
2022/04/11 12:36:58;;;;;;;2.47;2.20;;;;;;;21.20;22.22;98691.66;7035005;28;20211;-79
2022/04/11 12:40:20;;;;;;;4.83;2.83;;;;;;;21.39;23.04;98686.44;7033655;28;20251;-78
2022/04/11 12:44:00;;;;;;;3.37;2.57;;;;;;;22.51;21.64;98690.16;7030811;28;20254;-78
2022/04/11 12:47:22;;;;;;;2.63;2.43;;;;;;;22.51;21.19;98676.41;7030333;28;20199;-77
2022/04/11 12:50:44;;;;;;;5.80;2.50;;;;;;;22.59;21.99;98681.31;7013186;28;20690;-77
2022/04/11 12:54:08;;;;;;;3.93;2.63;;;;;;;22.48;20.77;98674.22;7027379;28;20222;-77
2022/04/11 12:57:32;;;;;;;2.43;2.17;;;;;;;22.27;20.99;98658.94;7030563;28;20217;-77
2022/04/11 13:00:57;;;;;;;3.20;2.30;;;;;;;22.35;22.12;98655.59;7031148;28;20259;-80
2022/04/11 13:04:20;;;;;;;2.83;2.20;;;;;;;22.07;22.20;98664.53;7025691;28;20701;-79
2022/04/11 13:07:47;;;;;;;4.23;2.50;;;;;;;21.60;23.41;98653.16;7028453;28;20200;-77
2022/04/11 13:11:09;;;;;;;3.13;2.80;;;;;;;22.41;22.43;98664.63;7030149;28;20244;-78
2022/04/11 13:14:31;;;;;;;2.83;2.63;;;;;;;22.64;21.73;98642.78;7031094;28;20699;-77
2022/04/11 13:21:33;;;;;;;3.87;2.50;;;;;;;22.65;21.39;98652.69;7030631;28;20427;-78
2022/04/11 13:24:55;;;;;;;3.00;2.80;;;;;;;22.58;20.78;98651.34;7031221;28;20206;-78
2022/04/11 13:28:17;;;;;;;2.90;2.20;;;;;;;22.89;19.82;98639.81;7030729;28;20205;-78
2022/04/11 13:31:39;;;;;;;3.50;2.67;;;;;;;22.84;21.00;98636.31;7031208;28;20232;-78
2022/04/11 13:35:00;;;;;;;2.87;2.53;;;;;;;22.35;21.51;98628.13;7024539;28;20700;-79
2022/04/11 13:38:23;;;;;;;3.57;2.80;;;;;;;22.27;21.39;98601.28;7029396;28;20202;-79
2022/04/11 13:41:47;;;;;;;3.23;2.37;;;;;;;22.60;21.74;98618.91;7031900;28;20207;-78
2022/04/11 13:45:09;;;;;;;3.33;2.60;;;;;;;22.15;21.40;98603.56;7037562;28;20219;-78
2022/04/11 13:48:31;;;;;;;3.63;2.70;;;;;;;21.87;21.28;98608.91;7035676;28;20257;-78
2022/04/11 13:51:53;;;;;;;4.50;2.90;;;;;;;22.00;22.60;98567.09;7037188;28;20215;-77
2022/04/11 13:55:16;;;;;;;3.20;2.90;;;;;;;22.04;21.91;98590.97;7032041;28;20224;-77
2022/04/11 13:58:37;;;;;;;3.87;2.80;;;;;;;22.87;21.11;98598.06;7007617;28;20201;-77
2022/04/11 14:01:59;;;;;;;3.00;2.70;;;;;;;23.00;20.69;98591.88;7016631;28;20324;-77
2022/04/11 14:05:21;;;;;;;3.03;2.50;;;;;;;22.52;21.67;98590.13;7027481;28;20202;-78
2022/04/11 14:08:42;;;;;;;3.20;2.90;;;;;;;22.10;21.88;98587.09;7018096;28;20226;-78
2022/04/11 14:12:08;;;;;;;4.33;3.37;;;;;;;21.23;22.22;98575.94;7006924;28;20219;-78
2022/04/11 14:15:30;;;;;;;3.50;3.00;;;;;;;22.08;22.61;98578.31;7007008;28;20221;-78
2022/04/11 14:18:51;;;;;;;4.23;3.07;;;;;;;22.12;22.80;98578.59;7006761;28;20229;-77
2022/04/11 14:22:13;;;;;;;3.33;3.00;;;;;;;22.81;21.95;98568.97;7007507;28;20210;-77
2022/04/11 14:25:34;;;;;;;4.63;3.67;;;;;;;21.34;21.96;98577.56;7007101;28;20207;-78
2022/04/11 14:28:58;;;;;;;3.63;3.23;;;;;;;21.85;22.71;98568.03;7007059;28;20311;-77
2022/04/11 14:32:19;;;;;;;2.80;2.60;;;;;;;22.26;23.33;98580.41;7007235;28;20205;-78
2022/04/11 14:35:41;;;;;;;4.70;3.27;;;;;;;22.23;22.17;98569.16;7006706;28;20328;-78
2022/04/11 14:39:03;;;;;;;4.37;3.77;;;;;;;22.44;21.56;98571.50;7006824;28;20587;-78
2022/04/11 14:42:25;;;;;;;4.83;3.07;;;;;;;22.87;20.83;98551.31;7010172;28;20205;-78
2022/04/11 14:45:47;;;;;;;4.33;3.57;;;;;;;23.04;21.00;98557.19;7007614;28;20287;-78
2022/04/11 14:49:09;;;;;;;3.40;3.10;;;;;;;21.23;22.86;98547.69;7006689;28;20312;-78
2022/04/11 14:52:31;;;;;;;3.37;3.07;;;;;;;21.67;23.50;98552.19;7007380;28;20240;-77
2022/04/11 14:55:53;;;;;;;4.03;3.63;;;;;;;21.57;23.42;98541.25;7005865;28;20262;-78
2022/04/11 14:59:15;;;;;;;3.37;3.07;;;;;;;22.11;22.91;98522.00;7012066;28;20242;-78
2022/04/11 15:02:40;;;;;;;3.67;3.33;;;;;;;22.71;21.96;98538.03;7028611;28;20209;-79
2022/04/11 15:06:01;;;;;;;4.23;3.30;;;;;;;22.00;21.95;98537.72;7031582;28;20205;-78
2022/04/11 15:09:23;;;;;;;3.17;2.87;;;;;;;22.23;22.44;98530.69;7024461;28;20226;-79
2022/04/11 15:12:45;;;;;;;3.50;3.20;;;;;;;22.23;22.55;98525.19;7016715;28;20302;-79
2022/04/11 15:16:07;;;;;;;4.10;3.20;;;;;;;21.97;22.44;98486.16;7028543;28;20233;-78
2022/04/11 15:19:30;;;;;;;4.23;3.20;;;;;;;22.73;22.14;98513.81;7022161;28;20372;-79
2022/04/11 15:22:52;;;;;;;3.53;3.23;;;;;;;22.86;22.11;98489.19;7006887;28;20204;-79
2022/04/11 15:26:14;;;;;;;3.73;3.43;;;;;;;22.60;22.22;98504.28;7004940;28;20221;-78
2022/04/11 15:29:35;;;;;;;3.77;3.47;;;;;;;22.48;22.09;98506.63;7012217;28;20221;-79
2022/04/11 15:32:57;;;;;;;4.60;3.50;;;;;;;22.02;22.48;98504.50;7017331;28;20227;-79
2022/04/11 15:36:20;;;;;;;4.03;3.10;;;;;;;20.66;24.10;98502.59;7024085;28;20315;-78
2022/04/11 15:39:42;;;;;;;3.67;2.97;;;;;;;22.07;23.06;98488.78;7029414;28;20222;-78
2022/04/11 15:43:04;;;;;;;3.47;3.17;;;;;;;22.22;23.17;98490.59;7024381;28;20214;-79
2022/04/11 15:46:25;;;;;;;4.00;3.60;;;;;;;21.77;22.14;98480.78;7033207;28;20198;-78
2022/04/11 15:49:47;;;;;;;5.27;3.30;;;;;;;22.28;22.43;98476.56;7033684;28;20229;-78
2022/04/11 15:53:10;;;;;;;3.40;2.90;;;;;;;22.40;23.19;98485.22;7033460;28;20851;-78
2022/04/11 15:56:32;;;;;;;3.33;3.03;;;;;;;22.36;23.37;98489.66;7033585;28;20231;-78
2022/04/11 15:59:53;;;;;;;3.63;3.30;;;;;;;22.05;22.50;98488.28;7033493;28;20254;-78
2022/04/11 16:03:15;;;;;;;3.10;2.90;;;;;;;22.28;23.79;98470.22;7019080;28;20206;-78
2022/04/11 16:06:37;;;;;;;4.80;4.03;;;;;;;21.98;23.25;98473.22;7004612;28;20245;-78
2022/04/11 16:10:00;;;;;;;3.70;3.40;;;;;;;21.70;23.48;98480.28;7005087;28;20237;-79
2022/04/11 16:13:21;;;;;;;6.20;3.50;;;;;;;21.04;23.97;98437.00;7005220;28;20287;-78
2022/04/11 16:16:43;;;;;;;3.50;3.20;;;;;;;21.60;23.58;98479.50;7003992;28;20717;-79
2022/04/11 16:20:05;;;;;;;3.93;3.53;;;;;;;21.62;22.92;98466.31;7004643;28;20287;-79
2022/04/11 16:23:27;;;;;;;4.90;3.80;;;;;;;21.33;23.06;98456.34;7005292;28;20241;-79
2022/04/11 16:26:50;;;;;;;4.07;3.67;;;;;;;20.32;24.36;98455.81;7002730;28;20211;-79
2022/04/11 16:30:13;;;;;;;4.67;2.90;;;;;;;20.76;24.40;98461.47;7003553;28;20578;-78
2022/04/11 16:33:34;;;;;;;4.13;3.40;;;;;;;20.47;24.99;98442.13;7005166;28;20571;-78
2022/04/11 16:36:59;;;;;;;4.73;3.57;;;;;;;21.40;23.42;98461.22;7003478;28;20289;-78
2022/04/11 16:40:22;;;;;;;5.30;3.80;;;;;;;20.50;24.30;98466.19;7006274;28;20242;-80
2022/04/11 16:43:45;;;;;;;3.93;3.47;;;;;;;19.96;25.28;98456.06;7006361;28;20689;-81
2022/04/11 16:47:07;;;;;;;3.97;3.57;;;;;;;19.79;24.75;98477.38;7007215;28;20221;-79
2022/04/11 16:50:29;;;;;;;4.83;3.10;;;;;;;20.14;25.20;98474.72;7020978;28;20846;-78
2022/04/11 16:53:50;;;;;;;6.67;4.10;;;;;;;20.01;24.61;98465.13;7007684;28;20195;-77
2022/04/11 16:57:13;;;;;;;4.40;4.00;;;;;;;19.60;24.99;98470.81;7005798;28;20249;-80
2022/04/11 17:00:36;;;;;;;4.77;4.00;;;;;;;20.26;25.03;98475.25;7031878;28;20221;-80
2022/04/11 17:03:58;;;;;;;4.90;4.27;;;;;;;19.82;25.05;98465.91;7046931;28;20227;-80
2022/04/11 17:07:19;;;;;;;3.93;3.43;;;;;;;19.63;25.21;98456.59;7038427;28;20209;-80
2022/04/11 17:10:41;;;;;;;4.30;3.90;;;;;;;19.41;25.98;98473.22;7032771;28;20234;-79
2022/04/11 17:14:03;;;;;;;5.10;4.23;;;;;;;20.01;25.67;98472.50;7033231;28;20206;-79
2022/04/11 17:21:06;;;;;;;5.23;4.07;;;;;;;20.09;26.45;98474.69;7033595;28;20226;-79
2022/04/11 17:24:28;;;;;;;5.20;3.73;;;;;;;19.78;27.30;98478.50;7033342;28;20209;-80
2022/04/11 17:27:49;;;;;;;5.27;4.10;;;;;;;19.27;28.35;98477.56;7035192;28;20193;-80
2022/04/11 17:31:11;;;;;;;8.20;4.73;;;;;;;19.09;28.62;98466.25;7032775;28;20373;-80
2022/04/11 17:34:34;;;;;;;5.73;4.80;;;;;;;18.65;29.23;98475.88;7031658;28;20734;-79
2022/04/11 17:37:55;;;;;;;6.60;4.60;;;;;;;18.55;29.88;98482.09;7032016;28;20205;-79
2022/04/11 17:41:17;;;;;;;6.10;5.00;;;;;;;18.31;30.32;98482.72;7031753;28;20297;-79
2022/04/11 17:44:39;;;;;;;5.10;4.60;;;;;;;18.59;30.11;98483.22;7006596;28;20209;-79
2022/04/11 17:48:00;;;;;;;6.83;5.03;;;;;;;18.37;30.58;98490.72;7007728;28;20212;-79
2022/04/11 17:51:23;;;;;;;6.43;4.70;;;;;;;18.14;31.17;98476.56;7033096;28;20248;-79
2022/04/11 17:54:45;;;;;;;8.50;4.87;;;;;;;18.80;30.46;98497.81;7033286;28;20205;-79
2022/04/11 17:58:06;;;;;;;6.17;4.97;;;;;;;18.93;30.11;98498.13;7033091;28;20221;-79
2022/04/11 18:01:31;;;;;;;6.33;5.03;;;;;;;18.22;30.58;98478.84;7032965;28;20288;-79
2022/04/11 18:04:52;;;;;;;9.57;5.40;;;;;;;17.92;31.20;98489.50;7029382;28;20209;-79
2022/04/11 18:08:16;;;;;;;5.60;4.57;;;;;;;17.74;31.85;98496.16;7031695;28;20552;-79
2022/04/11 18:11:38;;;;;;;5.80;4.97;;;;;;;17.53;31.98;98458.03;7033778;28;20233;-79
2022/04/11 18:15:00;;;;;;;6.50;5.17;;;;;;;17.67;31.85;98503.72;7032778;28;20233;-79
2022/04/11 18:18:21;;;;;;;6.10;4.73;;;;;;;17.87;31.70;98500.38;7031362;28;20654;-80
2022/04/11 18:21:44;;;;;;;7.57;4.70;;;;;;;17.25;32.76;98502.69;7010627;28;20209;-80
2022/04/11 18:25:09;;;;;;;5.87;4.40;;;;;;;17.72;31.83;98473.78;7030033;28;20204;-80